Time;durP1;ratioP1;P1;durP2;ratioP2;P2;SDS_P1;SDS_P2;PMS_P1;PMS_P2;Temp;Humidity;BMP_temperature;BMP_pressure;BME280_temperature;BME280_humidity;BME280_pressure;Samples;Min_cycle;Max_cycle;Signal;HPM_P1;HPM_P2
2021/10/22 00:02:09;;;;;;;32.55;7.28;;;;;;;4.35;100.00;101429.19;5025793;28;20032;-63
2021/10/22 00:04:35;;;;;;;29.27;6.43;;;;;;;4.31;100.00;101430.81;5021630;28;20487;-63
2021/10/22 00:07:01;;;;;;;27.67;6.90;;;;;;;4.34;100.00;101430.91;5022889;28;20030;-63
2021/10/22 00:09:27;;;;;;;28.48;6.95;;;;;;;4.30;100.00;101426.41;5024107;28;20073;-62
2021/10/22 00:11:52;;;;;;;32.28;7.43;;;;;;;4.29;100.00;101428.97;5021713;28;20036;-63
2021/10/22 00:14:17;;;;;;;29.38;7.68;;;;;;;4.29;100.00;101427.22;5021720;28;20056;-63
2021/10/22 00:16:43;;;;;;;36.03;7.82;;;;;;;4.29;100.00;101421.09;5021447;28;20050;-62
2021/10/22 00:19:09;;;;;;;30.77;7.80;;;;;;;4.28;100.00;101427.16;5024716;28;20025;-62
2021/10/22 00:21:34;;;;;;;34.92;8.25;;;;;;;4.31;100.00;101427.28;5019152;28;20026;-62
2021/10/22 00:24:00;;;;;;;31.70;8.35;;;;;;;4.30;100.00;101420.28;5022994;28;20412;-63
2021/10/22 00:26:25;;;;;;;36.78;8.93;;;;;;;4.40;100.00;101425.03;5023832;28;20026;-64
2021/10/22 00:28:51;;;;;;;35.75;9.40;;;;;;;4.34;100.00;101417.84;5018190;28;20025;-63
2021/10/22 00:31:16;;;;;;;40.30;9.68;;;;;;;4.32;100.00;101421.22;5020026;28;20033;-62
2021/10/22 00:33:42;;;;;;;34.70;9.00;;;;;;;4.26;100.00;101424.47;5018014;28;20022;-62
2021/10/22 00:36:10;;;;;;;35.63;9.70;;;;;;;4.25;100.00;101432.28;5021323;28;20026;-63
2021/10/22 00:38:36;;;;;;;33.80;9.52;;;;;;;4.28;100.00;101437.63;5021023;28;20025;-63
2021/10/22 00:41:02;;;;;;;33.20;9.73;;;;;;;4.30;100.00;101435.97;5017141;28;20087;-63
2021/10/22 00:43:32;;;;;;;33.67;9.95;;;;;;;4.23;100.00;101434.84;5023326;28;20030;-63
2021/10/22 00:45:57;;;;;;;34.60;9.68;;;;;;;4.25;100.00;101425.34;5017631;28;20544;-63
2021/10/22 00:48:23;;;;;;;39.85;10.90;;;;;;;4.16;100.00;101432.81;5020969;28;20037;-62
2021/10/22 00:50:51;;;;;;;38.53;10.52;;;;;;;4.11;100.00;101429.13;5017394;28;20032;-63
2021/10/22 00:53:17;;;;;;;36.35;10.85;;;;;;;4.07;100.00;101425.47;5022797;28;20037;-63
2021/10/22 00:55:43;;;;;;;38.00;11.15;;;;;;;4.04;100.00;101419.25;5022402;28;20033;-62
2021/10/22 00:58:10;;;;;;;39.17;11.50;;;;;;;4.03;100.00;101420.94;5017771;28;20373;-62
2021/10/22 01:00:36;;;;;;;35.92;10.68;;;;;;;4.06;100.00;101425.41;5020734;28;20139;-62
2021/10/22 01:03:03;;;;;;;36.20;11.68;;;;;;;4.05;100.00;101423.63;5018509;28;20129;-62
2021/10/22 01:05:29;;;;;;;36.17;10.88;;;;;;;4.04;100.00;101421.88;5018612;28;20038;-62
2021/10/22 01:07:54;;;;;;;38.75;11.43;;;;;;;4.06;100.00;101415.84;5018883;28;20043;-62
2021/10/22 01:10:20;;;;;;;38.10;11.52;;;;;;;4.00;100.00;101420.81;5018524;28;20355;-62
2021/10/22 01:12:45;;;;;;;37.65;11.90;;;;;;;4.00;100.00;101410.38;5017355;28;20064;-62
2021/10/22 01:15:11;;;;;;;37.85;11.57;;;;;;;4.00;100.00;101415.59;5020110;28;20046;-62
2021/10/22 01:17:41;;;;;;;43.97;12.88;;;;;;;3.91;100.00;101417.84;5018323;28;20053;-62
2021/10/22 01:20:16;;;;;;;44.33;12.52;;;;;;;3.88;100.00;101410.75;5019079;28;20018;-62
2021/10/22 01:22:43;;;;;;;38.60;11.60;;;;;;;3.91;100.00;101410.00;5018312;28;20057;-62
2021/10/22 01:25:11;;;;;;;39.13;11.85;;;;;;;3.88;100.00;101410.75;5017959;28;20052;-62
2021/10/22 01:27:37;;;;;;;39.97;12.35;;;;;;;3.83;100.00;101402.75;5017586;28;20025;-62
2021/10/22 01:30:04;;;;;;;36.08;12.30;;;;;;;3.81;100.00;101404.38;5019803;28;20088;-62
2021/10/22 01:32:30;;;;;;;41.33;12.75;;;;;;;3.81;100.00;101400.88;5015383;28;20065;-62
2021/10/22 01:34:56;;;;;;;38.92;12.27;;;;;;;3.79;100.00;101395.59;5019271;28;20019;-63
2021/10/22 01:37:21;;;;;;;37.13;12.32;;;;;;;3.84;100.00;101391.44;5018795;28;20388;-62
2021/10/22 01:39:47;;;;;;;38.90;12.40;;;;;;;3.84;100.00;101401.91;5017929;28;20026;-62
2021/10/22 01:42:12;;;;;;;42.20;13.20;;;;;;;3.86;100.00;101390.59;5018867;28;20509;-63
2021/10/22 01:44:37;;;;;;;39.78;12.52;;;;;;;3.82;100.00;101400.94;5019972;28;20022;-61
2021/10/22 01:47:03;;;;;;;43.88;13.25;;;;;;;3.89;100.00;101402.09;5017484;28;20030;-62
2021/10/22 01:49:28;;;;;;;40.22;13.10;;;;;;;3.86;100.00;101401.06;5017687;28;20026;-62
2021/10/22 01:51:53;;;;;;;39.50;12.95;;;;;;;3.79;100.00;101400.81;5022143;28;20068;-62
2021/10/22 01:54:19;;;;;;;41.85;13.23;;;;;;;3.79;100.00;101395.59;5015614;28;20062;-62
2021/10/22 01:56:44;;;;;;;39.70;13.02;;;;;;;3.80;100.00;101402.63;5022444;28;20087;-62
2021/10/22 01:59:09;;;;;;;39.10;13.18;;;;;;;3.74;100.00;101399.75;5020330;28;20406;-62
2021/10/22 02:01:35;;;;;;;40.92;13.13;;;;;;;3.69;100.00;101398.66;5022016;28;20050;-62
2021/10/22 02:04:00;;;;;;;41.83;13.57;;;;;;;3.67;100.00;101395.97;5023935;28;20064;-62
2021/10/22 02:06:25;;;;;;;40.20;13.38;;;;;;;3.67;100.00;101400.34;5022290;28;20083;-63
2021/10/22 02:08:51;;;;;;;40.75;12.98;;;;;;;3.69;100.00;101403.88;5022648;28;20030;-62
2021/10/22 02:11:16;;;;;;;40.95;13.60;;;;;;;3.66;100.00;101398.53;5022297;28;20033;-62
2021/10/22 02:13:41;;;;;;;41.90;12.80;;;;;;;3.61;100.00;101403.59;5023713;28;20052;-62
2021/10/22 02:16:07;;;;;;;40.63;13.05;;;;;;;3.56;100.00;101405.09;5024066;28;20432;-62
2021/10/22 02:18:32;;;;;;;39.88;13.40;;;;;;;3.53;100.00;101401.47;5022904;28;20235;-62
2021/10/22 02:20:57;;;;;;;38.20;12.63;;;;;;;3.59;100.00;101406.97;5022632;28;20029;-62
2021/10/22 02:23:23;;;;;;;39.03;11.80;;;;;;;3.62;100.00;101399.22;5019894;28;20052;-62
2021/10/22 02:25:49;;;;;;;40.05;12.98;;;;;;;3.58;100.00;101394.69;5022300;28;20030;-62
2021/10/22 02:28:14;;;;;;;41.03;12.35;;;;;;;3.63;100.00;101394.06;5022209;28;20531;-64
2021/10/22 02:30:41;;;;;;;39.40;12.15;;;;;;;3.56;100.00;101399.00;5020973;28;20029;-63
2021/10/22 02:33:07;;;;;;;37.78;12.27;;;;;;;3.53;100.00;101401.47;5021816;28;20022;-62
2021/10/22 02:35:33;;;;;;;40.97;11.90;;;;;;;3.53;100.00;101393.63;5020615;28;20029;-62
2021/10/22 02:37:58;;;;;;;40.83;12.57;;;;;;;3.47;100.00;101394.28;5023741;28;20420;-62
2021/10/22 02:40:24;;;;;;;40.90;12.40;;;;;;;3.46;100.00;101395.09;5021142;28;20064;-62
2021/10/22 02:42:49;;;;;;;36.97;11.35;;;;;;;3.46;100.00;101389.84;5021278;28;20026;-62
2021/10/22 02:45:15;;;;;;;40.85;12.35;;;;;;;3.45;100.00;101386.38;5019039;28;20025;-62
2021/10/22 02:47:40;;;;;;;40.83;11.95;;;;;;;3.40;100.00;101387.88;5022384;28;20050;-62
2021/10/22 02:50:06;;;;;;;43.63;12.13;;;;;;;3.43;100.00;101388.00;5019241;28;20381;-64
2021/10/22 02:52:31;;;;;;;40.33;11.63;;;;;;;3.41;100.00;101381.81;5022415;28;20083;-62
2021/10/22 02:54:57;;;;;;;37.58;11.45;;;;;;;3.39;100.00;101382.59;5020813;28;20049;-62
2021/10/22 02:57:22;;;;;;;43.20;11.45;;;;;;;3.38;100.00;101381.69;5021449;28;20049;-62
2021/10/22 02:59:48;;;;;;;38.97;11.85;;;;;;;3.35;100.00;101373.75;5019861;28;20096;-62
2021/10/22 03:02:13;;;;;;;42.92;11.93;;;;;;;3.34;100.00;101374.56;5022349;28;20029;-62
2021/10/22 03:04:38;;;;;;;36.28;10.82;;;;;;;3.34;100.00;101368.44;5022631;28;20044;-63
2021/10/22 03:07:04;;;;;;;39.13;11.30;;;;;;;3.32;100.00;101363.16;5019183;28;20121;-63
2021/10/22 03:09:29;;;;;;;37.45;11.50;;;;;;;3.35;100.00;101368.50;5021785;28;20033;-62
2021/10/22 03:11:55;;;;;;;37.80;11.30;;;;;;;3.35;100.00;101376.34;5020855;28;20040;-61
2021/10/22 03:14:20;;;;;;;37.17;11.07;;;;;;;3.38;100.00;101365.09;5019511;28;20021;-62
2021/10/22 03:16:46;;;;;;;36.97;10.63;;;;;;;3.35;100.00;101365.91;5026778;28;20021;-62
2021/10/22 03:19:11;;;;;;;38.53;10.90;;;;;;;3.33;100.00;101366.66;5020514;28;20119;-61
2021/10/22 03:21:40;;;;;;;41.13;11.23;;;;;;;3.30;100.00;101365.69;5025951;28;20072;-62
2021/10/22 03:24:06;;;;;;;39.83;10.63;;;;;;;3.36;100.00;101367.66;5018768;28;20022;-62
2021/10/22 03:26:31;;;;;;;37.13;10.63;;;;;;;3.37;100.00;101374.69;5023847;28;20036;-62
2021/10/22 03:28:56;;;;;;;37.65;10.60;;;;;;;3.40;100.00;101374.81;5026164;28;20030;-63
2021/10/22 03:31:22;;;;;;;40.70;11.05;;;;;;;3.30;100.00;101373.50;5024804;28;20396;-62
2021/10/22 03:33:47;;;;;;;38.97;11.02;;;;;;;3.30;100.00;101370.03;5027625;28;20376;-62
2021/10/22 03:36:13;;;;;;;38.15;10.32;;;;;;;3.29;100.00;101365.63;5024756;28;20354;-61
2021/10/22 03:38:38;;;;;;;36.90;10.32;;;;;;;3.30;100.00;101375.25;5021620;28;20358;-62
2021/10/22 03:41:04;;;;;;;35.78;10.15;;;;;;;3.27;100.00;101373.38;5024345;28;20029;-62
2021/10/22 03:43:29;;;;;;;35.60;10.38;;;;;;;3.31;100.00;101361.38;5021750;28;20022;-62
2021/10/22 03:45:55;;;;;;;40.28;10.43;;;;;;;3.30;100.00;101367.41;5020512;28;20396;-62
2021/10/22 03:48:20;;;;;;;38.20;10.73;;;;;;;3.33;100.00;101367.53;5020949;28;20124;-61
2021/10/22 03:50:46;;;;;;;37.20;9.65;;;;;;;3.34;100.00;101364.09;5020713;28;20053;-62
2021/10/22 03:53:11;;;;;;;37.13;9.60;;;;;;;3.34;100.00;101364.09;5022506;28;20018;-62
2021/10/22 03:55:37;;;;;;;36.75;9.90;;;;;;;3.32;100.00;101355.31;5018813;28;20036;-62
2021/10/22 03:58:02;;;;;;;38.05;10.32;;;;;;;3.30;100.00;101354.34;5021608;28;20032;-62
2021/10/22 04:00:28;;;;;;;36.22;10.00;;;;;;;3.23;100.00;101350.59;5020392;28;20046;-62
2021/10/22 04:02:54;;;;;;;43.60;10.30;;;;;;;3.24;100.00;101348.88;5019904;28;20113;-62
2021/10/22 04:05:19;;;;;;;37.92;10.00;;;;;;;3.21;100.00;101351.34;5020309;28;20092;-62
2021/10/22 04:07:44;;;;;;;35.65;9.77;;;;;;;3.14;100.00;101355.41;5019079;28;20407;-62
2021/10/22 04:10:10;;;;;;;36.80;9.48;;;;;;;3.14;100.00;101355.41;5019564;28;20401;-62
2021/10/22 04:12:35;;;;;;;34.28;9.73;;;;;;;3.22;100.00;101358.34;5019764;28;20113;-62
2021/10/22 04:15:02;;;;;;;33.90;9.13;;;;;;;3.19;100.00;101353.91;5018012;28;20480;-62
2021/10/22 04:17:27;;;;;;;36.65;9.20;;;;;;;3.15;100.00;101357.22;5019640;28;20025;-62
2021/10/22 04:19:52;;;;;;;35.58;9.35;;;;;;;3.22;100.00;101358.34;5020143;28;20103;-62
2021/10/22 04:22:18;;;;;;;36.00;9.10;;;;;;;3.19;100.00;101360.81;5019786;28;20086;-62
2021/10/22 04:24:43;;;;;;;33.03;9.15;;;;;;;3.19;100.00;101363.44;5019484;28;20022;-62
2021/10/22 04:27:08;;;;;;;34.70;9.35;;;;;;;3.26;100.00;101362.88;5020918;28;20342;-62
2021/10/22 04:29:34;;;;;;;34.15;8.95;;;;;;;3.32;100.00;101371.00;5019394;28;20475;-62
2021/10/22 04:31:59;;;;;;;34.63;9.05;;;;;;;3.33;100.00;101366.66;5021028;28;20033;-62
2021/10/22 04:34:26;;;;;;;35.13;9.35;;;;;;;3.35;100.00;101368.50;5019032;28;20079;-62
2021/10/22 04:36:52;;;;;;;34.35;9.18;;;;;;;3.32;100.00;101365.78;5017422;28;20424;-62
2021/10/22 04:42:02;;;;;;;31.38;8.27;;;;;;;3.43;100.00;101376.66;5017947;28;20040;-63
2021/10/22 04:44:30;;;;;;;31.80;8.70;;;;;;;3.51;100.00;101376.97;5020670;28;20120;-62
2021/10/22 04:46:55;;;;;;;35.20;8.65;;;;;;;3.51;100.00;101371.75;5020053;28;20522;-62
2021/10/22 04:49:21;;;;;;;35.03;9.05;;;;;;;3.51;100.00;101376.97;5020664;28;20061;-62
2021/10/22 04:51:46;;;;;;;39.72;8.80;;;;;;;3.52;100.00;101386.63;5023235;28;20084;-62
2021/10/22 04:54:12;;;;;;;32.20;8.27;;;;;;;3.46;100.00;101372.44;5021146;28;20436;-62
2021/10/22 04:56:37;;;;;;;32.42;8.43;;;;;;;3.47;100.00;101375.97;5022914;28;20147;-62
2021/10/22 04:59:02;;;;;;;32.58;8.27;;;;;;;3.44;100.00;101371.50;5022747;28;20084;-62
2021/10/22 05:01:28;;;;;;;34.97;8.80;;;;;;;3.46;100.00;101377.66;5024289;28;20025;-61
2021/10/22 05:03:53;;;;;;;32.75;8.70;;;;;;;3.47;100.00;101381.19;5020421;28;20030;-61
2021/10/22 05:06:18;;;;;;;35.85;8.43;;;;;;;3.55;100.00;101386.72;5023015;28;20022;-62
2021/10/22 05:08:44;;;;;;;36.35;8.40;;;;;;;3.61;100.00;101400.06;5020737;28;20036;-62
2021/10/22 05:11:09;;;;;;;31.60;8.55;;;;;;;3.58;100.00;101400.84;5021155;28;20111;-62
2021/10/22 05:13:34;;;;;;;32.30;8.70;;;;;;;3.60;100.00;101403.53;5020411;28;20022;-62
2021/10/22 05:16:00;;;;;;;32.35;8.60;;;;;;;3.73;100.00;101395.34;5021918;28;20387;-61
2021/10/22 05:18:27;;;;;;;35.38;8.50;;;;;;;3.82;100.00;101406.16;5021411;28;20543;-62
2021/10/22 05:20:52;;;;;;;32.58;9.13;;;;;;;3.89;100.00;101403.78;5016553;28;20029;-62
2021/10/22 05:23:18;;;;;;;33.97;8.63;;;;;;;3.95;100.00;101412.81;5022051;28;20045;-62
2021/10/22 05:25:44;;;;;;;36.30;8.95;;;;;;;3.99;100.00;101416.41;5019248;28;20030;-62
2021/10/22 05:28:10;;;;;;;33.28;8.70;;;;;;;4.04;100.00;101417.50;5017600;28;20127;-61
2021/10/22 05:30:35;;;;;;;35.55;8.43;;;;;;;4.12;100.00;101412.56;5019802;28;20053;-62
2021/10/22 05:33:01;;;;;;;30.70;7.97;;;;;;;4.15;100.00;101425.78;5020549;28;20392;-62
2021/10/22 05:35:26;;;;;;;36.05;8.60;;;;;;;4.22;100.00;101421.69;5019046;28;20493;-63
2021/10/22 05:37:52;;;;;;;33.90;8.88;;;;;;;4.12;100.00;101410.88;5021002;28;20026;-64
2021/10/22 05:40:17;;;;;;;33.58;8.93;;;;;;;4.01;100.00;101396.47;5018660;28;20492;-64
2021/10/22 05:42:42;;;;;;;34.72;8.85;;;;;;;3.86;100.00;101382.75;5012515;28;20029;-65
2021/10/22 05:45:08;;;;;;;35.28;8.90;;;;;;;3.81;100.00;101383.44;5017082;28;20076;-64
2021/10/22 05:47:35;;;;;;;33.63;8.35;;;;;;;3.75;100.00;101375.38;5019753;28;20025;-64
2021/10/22 05:50:00;;;;;;;32.55;8.32;;;;;;;3.69;100.00;101377.75;5023239;28;20030;-64
2021/10/22 05:52:26;;;;;;;32.35;8.50;;;;;;;3.62;100.00;101368.75;5020983;28;20076;-65
2021/10/22 05:54:52;;;;;;;34.55;8.40;;;;;;;3.57;100.00;101367.69;5020135;28;20100;-63
2021/10/22 05:57:17;;;;;;;39.17;9.30;;;;;;;3.62;100.00;101370.47;5016561;28;20034;-64
2021/10/22 05:59:43;;;;;;;34.85;9.00;;;;;;;3.60;100.00;101365.19;5014993;28;20045;-65
2021/10/22 06:02:09;;;;;;;36.58;9.88;;;;;;;3.54;100.00;101356.19;5015150;28;20028;-64
2021/10/22 06:04:35;;;;;;;34.28;8.90;;;;;;;3.59;100.00;101359.88;5014647;28;20128;-66
2021/10/22 06:07:01;;;;;;;33.63;8.93;;;;;;;3.57;100.00;101357.22;5019428;28;20520;-63
2021/10/22 06:09:26;;;;;;;34.63;9.30;;;;;;;3.60;100.00;101356.47;5014280;28;20022;-64
2021/10/22 06:11:52;;;;;;;34.78;9.70;;;;;;;3.63;100.00;101357.47;5020829;28;20461;-63
2021/10/22 06:14:17;;;;;;;37.22;9.63;;;;;;;3.65;100.00;101354.91;5020692;28;20108;-64
2021/10/22 06:16:43;;;;;;;36.15;9.35;;;;;;;3.72;100.00;101363.91;5022480;28;20037;-63
2021/10/22 06:19:14;;;;;;;34.38;9.45;;;;;;;3.80;100.00;101363.38;5019511;28;20029;-63
2021/10/22 06:24:25;;;;;;;39.13;9.18;;;;;;;3.90;100.00;101355.88;4993290;28;20120;-62
2021/10/22 06:26:51;;;;;;;37.40;9.65;;;;;;;3.93;100.00;101346.47;4992135;28;20117;-63
2021/10/22 06:29:16;;;;;;;36.42;9.07;;;;;;;4.03;100.00;101345.06;4995401;28;20117;-63
2021/10/22 06:31:43;;;;;;;36.67;9.27;;;;;;;4.06;100.00;101331.22;4991935;28;20406;-62
2021/10/22 06:34:09;;;;;;;34.00;9.13;;;;;;;4.07;100.00;101335.63;4992649;28;20053;-64
2021/10/22 06:36:35;;;;;;;31.25;8.73;;;;;;;4.07;100.00;101339.13;4993728;28;20030;-64
2021/10/22 06:39:02;;;;;;;33.35;8.57;;;;;;;4.04;100.00;101346.88;4992995;28;20036;-62
2021/10/22 06:41:27;;;;;;;36.80;9.27;;;;;;;3.98;100.00;101346.63;4985002;28;20038;-62
2021/10/22 06:43:53;;;;;;;32.25;8.25;;;;;;;3.96;100.00;101348.28;4993359;28;20596;-62
2021/10/22 06:46:20;;;;;;;35.72;8.82;;;;;;;4.11;100.00;101346.28;4992172;28;20038;-64
2021/10/22 06:48:46;;;;;;;32.20;9.05;;;;;;;4.23;100.00;101355.44;4992485;28;20050;-65
2021/10/22 06:51:14;;;;;;;36.03;9.10;;;;;;;4.30;100.00;101353.09;4991115;28;20030;-63
2021/10/22 06:53:39;;;;;;;35.53;9.00;;;;;;;4.39;100.00;101368.25;4994319;28;20031;-62
2021/10/22 06:56:06;;;;;;;33.65;8.85;;;;;;;4.48;100.00;101368.59;4991847;28;20039;-63
2021/10/22 06:58:31;;;;;;;34.65;8.50;;;;;;;4.60;100.00;101372.53;4997838;28;20044;-64
2021/10/22 07:00:59;;;;;;;34.55;8.68;;;;;;;4.68;100.00;101368.47;4999076;28;20392;-63
2021/10/22 07:03:27;;;;;;;31.40;7.95;;;;;;;4.77;100.00;101367.91;5023637;28;20459;-63
2021/10/22 07:08:22;;;;;;;36.05;9.00;;;;;;;4.96;100.00;101366.84;5020262;28;20382;-64
2021/10/22 07:10:48;;;;;;;33.28;8.45;;;;;;;5.03;100.00;101377.59;5023813;28;20061;-64
2021/10/22 07:13:13;;;;;;;32.13;8.02;;;;;;;5.15;100.00;101365.75;5020447;28;20061;-65
2021/10/22 07:15:40;;;;;;;31.10;8.50;;;;;;;5.29;100.00;101382.84;5024817;28;20029;-64
2021/10/22 07:18:05;;;;;;;33.55;8.07;;;;;;;5.32;100.00;101366.34;5017585;28;20481;-64
2021/10/22 07:20:32;;;;;;;33.42;8.27;;;;;;;5.37;100.00;101370.00;5021434;28;20025;-65
2021/10/22 07:23:08;;;;;;;32.10;8.13;;;;;;;5.46;100.00;101374.66;5021618;28;20467;-64
2021/10/22 07:25:37;;;;;;;32.15;8.23;;;;;;;5.60;100.00;101378.63;5024704;28;20491;-63
2021/10/22 07:28:08;;;;;;;33.35;7.95;;;;;;;5.69;100.00;101378.06;5019426;28;20034;-63
2021/10/22 07:30:35;;;;;;;31.15;8.20;;;;;;;5.78;100.00;101380.97;5021887;28;20036;-63
2021/10/22 07:33:00;;;;;;;31.00;7.95;;;;;;;5.87;100.00;101378.66;5022965;28;20095;-63
2021/10/22 07:35:26;;;;;;;31.85;7.65;;;;;;;5.94;100.00;101379.72;5020862;28;20392;-63
2021/10/22 07:37:51;;;;;;;30.70;7.50;;;;;;;6.03;100.00;101384.41;5022163;28;20436;-63
2021/10/22 07:40:16;;;;;;;28.98;7.75;;;;;;;6.10;100.00;101386.38;5018081;28;20025;-63
2021/10/22 07:42:42;;;;;;;29.52;7.63;;;;;;;6.18;100.00;101389.28;5024571;28;20044;-64
2021/10/22 07:45:08;;;;;;;33.95;7.20;;;;;;;6.28;98.47;101397.47;5023627;28;20037;-64
2021/10/22 07:47:35;;;;;;;28.70;7.35;;;;;;;6.36;99.52;101409.94;5020758;28;20465;-64
2021/10/22 07:50:02;;;;;;;27.13;7.03;;;;;;;6.39;97.64;101404.78;5021325;28;20029;-63
2021/10/22 07:52:29;;;;;;;30.20;7.53;;;;;;;6.41;97.09;101411.88;5025947;28;20074;-63
2021/10/22 07:54:57;;;;;;;31.58;7.45;;;;;;;6.53;96.40;101413.97;5022301;28;20588;-64
2021/10/22 07:57:23;;;;;;;28.73;7.55;;;;;;;6.71;97.26;101407.47;5024887;28;20052;-65
2021/10/22 07:59:49;;;;;;;26.77;7.15;;;;;;;6.79;96.19;101409.47;5015965;28;20124;-64
2021/10/22 08:02:16;;;;;;;30.35;7.75;;;;;;;6.82;95.59;101399.91;5019673;28;20366;-65
2021/10/22 08:04:46;;;;;;;29.50;7.15;;;;;;;6.71;96.12;101424.13;5020340;28;20021;-65
2021/10/22 08:07:17;;;;;;;29.13;7.20;;;;;;;6.87;94.75;101406.19;5020357;28;20044;-64
2021/10/22 08:09:44;;;;;;;31.65;7.68;;;;;;;6.93;94.76;101412.53;5017645;28;20275;-64
2021/10/22 08:12:14;;;;;;;31.23;7.95;;;;;;;6.85;93.46;101416.66;5016349;28;20030;-65
2021/10/22 08:14:42;;;;;;;31.27;8.02;;;;;;;6.83;94.52;101423.63;5019444;28;20033;-63
2021/10/22 08:17:07;;;;;;;31.60;7.82;;;;;;;7.00;94.81;101426.72;5016976;28;20026;-63
2021/10/22 08:19:33;;;;;;;34.28;8.10;;;;;;;6.98;93.53;101423.16;5019236;28;20021;-63
2021/10/22 08:24:43;;;;;;;29.08;8.05;;;;;;;6.83;94.79;101434.13;5018972;28;20129;-63
2021/10/22 08:27:09;;;;;;;26.60;7.65;;;;;;;7.05;93.99;101433.00;5019898;28;20045;-63
2021/10/22 08:29:35;;;;;;;30.45;7.57;;;;;;;7.27;91.45;101436.22;5016620;28;20424;-63
2021/10/22 08:32:00;;;;;;;32.35;7.72;;;;;;;7.26;90.94;101439.69;5019677;28;20037;-63
2021/10/22 08:34:27;;;;;;;30.23;8.20;;;;;;;7.35;90.99;101434.69;5017646;28;20484;-64
2021/10/22 08:36:53;;;;;;;30.67;7.85;;;;;;;7.45;89.32;101420.91;5017731;28;20029;-64
2021/10/22 08:39:18;;;;;;;29.27;7.60;;;;;;;7.46;88.72;101422.72;5017522;28;20037;-63
2021/10/22 08:41:46;;;;;;;32.28;8.00;;;;;;;7.63;87.93;101441.56;5022775;28;20029;-63
2021/10/22 08:44:13;;;;;;;28.83;7.65;;;;;;;7.79;88.17;101429.69;5012901;28;20054;-63
2021/10/22 08:46:41;;;;;;;31.35;7.28;;;;;;;8.12;86.33;101441.00;5013125;28;20534;-63
2021/10/22 08:49:11;;;;;;;29.17;7.70;;;;;;;8.32;85.92;101426.56;5012971;28;20044;-63
2021/10/22 08:51:38;;;;;;;31.60;7.68;;;;;;;8.37;83.39;101443.38;5023008;28;20069;-64
2021/10/22 08:54:03;;;;;;;28.67;7.25;;;;;;;8.44;83.92;101427.69;5023749;28;20402;-63
2021/10/22 08:56:29;;;;;;;25.77;6.80;;;;;;;8.48;83.41;101442.75;5020207;28;20038;-68
2021/10/22 08:58:54;;;;;;;25.70;7.13;;;;;;;8.53;81.75;101443.72;5024819;28;20408;-68
2021/10/22 09:01:19;;;;;;;29.83;7.72;;;;;;;8.50;81.76;101435.75;5021787;28;20036;-67
2021/10/22 09:03:45;;;;;;;28.27;6.97;;;;;;;8.50;82.95;101441.94;5023725;28;20125;-68
2021/10/22 09:06:14;;;;;;;29.30;7.68;;;;;;;8.57;82.56;101435.03;5022648;28;20025;-68
2021/10/22 09:08:42;;;;;;;30.08;7.30;;;;;;;8.54;81.54;101449.03;5022696;28;20472;-66
2021/10/22 09:11:33;;;;;;;29.17;7.38;;;;;;;8.60;81.91;101455.31;5017576;28;20376;-64
2021/10/22 09:14:17;;;;;;;30.55;7.70;;;;;;;8.61;80.89;101451.84;5016725;28;20022;-65
2021/10/22 09:16:47;;;;;;;27.02;6.68;;;;;;;8.63;80.75;101435.16;5016891;28;20021;-65
2021/10/22 09:19:26;;;;;;;31.40;7.70;;;;;;;8.69;80.77;101453.78;5016784;28;20036;-65
2021/10/22 09:21:51;;;;;;;29.40;7.45;;;;;;;8.70;79.81;101447.63;5017823;28;20080;-66
2021/10/22 09:24:20;;;;;;;26.38;7.10;;;;;;;8.72;79.98;101445.03;5018366;28;20437;-65
2021/10/22 09:26:55;;;;;;;29.25;7.60;;;;;;;8.70;82.06;101439.72;5018937;28;20030;-64
2021/10/22 09:29:22;;;;;;;27.10;7.43;;;;;;;8.66;80.37;101443.13;5019615;28;20057;-65
2021/10/22 09:31:50;;;;;;;30.42;8.48;;;;;;;8.69;81.93;101450.22;5017675;28;20488;-66
2021/10/22 09:34:33;;;;;;;27.65;6.80;;;;;;;8.75;80.40;101442.44;5020100;28;20022;-65
2021/10/22 09:37:00;;;;;;;25.85;6.68;;;;;;;8.68;80.36;101433.53;5019469;28;20022;-65
2021/10/22 09:39:38;;;;;;;26.65;6.65;;;;;;;8.74;79.72;101438.06;5014957;28;20026;-63
2021/10/22 09:42:10;;;;;;;28.17;6.75;;;;;;;8.86;81.25;101437.41;5022070;28;20155;-65
2021/10/22 09:44:38;;;;;;;27.70;7.07;;;;;;;8.94;79.75;101469.22;5015338;28;20030;-64
2021/10/22 09:47:04;;;;;;;27.67;6.95;;;;;;;9.03;79.73;101451.84;5021211;28;20028;-65
2021/10/22 09:49:31;;;;;;;29.02;7.30;;;;;;;9.18;79.15;101447.72;5020740;28;20121;-64
2021/10/22 09:51:56;;;;;;;28.77;7.47;;;;;;;9.51;76.74;101454.50;5022986;28;20574;-65
2021/10/22 09:54:30;;;;;;;26.90;6.80;;;;;;;9.52;76.37;101449.28;5023986;28;20030;-64
2021/10/22 09:56:58;;;;;;;29.83;6.97;;;;;;;9.32;77.92;101447.97;5020884;28;20385;-64
2021/10/22 09:59:26;;;;;;;27.23;6.97;;;;;;;9.29;79.14;101454.13;5024566;28;20049;-65
2021/10/22 10:01:54;;;;;;;28.30;7.40;;;;;;;9.35;79.46;101446.31;5022456;28;20029;-64
2021/10/22 10:04:24;;;;;;;30.88;7.47;;;;;;;9.39;78.37;101455.16;5021294;28;20022;-63
2021/10/22 10:06:51;;;;;;;28.88;7.00;;;;;;;9.58;78.24;101448.47;5019613;28;20159;-63
2021/10/22 10:09:18;;;;;;;25.30;6.07;;;;;;;9.61;75.68;101453.84;5019469;28;20033;-63
2021/10/22 10:11:44;;;;;;;25.67;6.35;;;;;;;9.72;77.21;101451.38;5024379;28;20408;-63
2021/10/22 10:14:13;;;;;;;24.35;6.47;;;;;;;10.62;74.55;101464.25;5018783;28;20026;-63
2021/10/22 10:16:40;;;;;;;27.60;6.05;;;;;;;11.16;70.21;101476.41;5017329;28;20086;-65
2021/10/22 10:19:31;;;;;;;27.45;6.68;;;;;;;11.62;69.15;101486.66;5020622;28;20073;-65
2021/10/22 10:22:02;;;;;;;26.08;5.72;;;;;;;11.68;69.71;101477.88;5021386;28;20038;-64
2021/10/22 10:24:36;;;;;;;27.90;6.30;;;;;;;11.02;74.21;101477.13;5018978;28;20030;-65
2021/10/22 10:27:05;;;;;;;30.25;6.43;;;;;;;10.40;76.27;101471.88;5017729;28;20536;-64
2021/10/22 10:29:33;;;;;;;26.38;6.00;;;;;;;10.45;76.14;101491.31;5021098;28;20029;-64
2021/10/22 10:32:05;;;;;;;27.80;6.30;;;;;;;10.48;76.85;101484.31;5022923;28;20029;-65
2021/10/22 10:34:30;;;;;;;29.83;6.68;;;;;;;10.05;82.57;101472.19;5014246;28;20057;-65
2021/10/22 10:37:04;;;;;;;27.73;6.60;;;;;;;9.52;86.24;101473.03;5023526;28;20060;-64
2021/10/22 10:39:42;;;;;;;31.35;7.30;;;;;;;8.99;89.27;101481.63;5026721;28;20473;-64
2021/10/22 10:42:26;;;;;;;29.55;6.60;;;;;;;8.78;92.79;101486.44;5015688;28;20034;-64
2021/10/22 10:44:57;;;;;;;32.42;7.03;;;;;;;8.76;100.00;101491.69;5024150;28;20022;-64
2021/10/22 10:47:33;;;;;;;30.02;7.40;;;;;;;8.81;100.00;101497.06;5026959;28;20109;-64
2021/10/22 10:50:00;;;;;;;32.05;7.18;;;;;;;8.86;98.15;101495.44;5021388;28;20425;-64
2021/10/22 10:52:38;;;;;;;29.85;6.80;;;;;;;8.99;96.00;101491.31;5027359;28;20021;-66
2021/10/22 10:55:19;;;;;;;33.67;6.85;;;;;;;8.92;96.19;101495.56;5024938;28;20412;-64
2021/10/22 10:57:51;;;;;;;27.58;6.28;;;;;;;8.78;97.96;101508.44;5024657;28;20029;-63
2021/10/22 11:00:19;;;;;;;26.10;6.00;;;;;;;8.69;100.00;101510.84;5015065;28;20054;-63
2021/10/22 11:03:11;;;;;;;28.40;6.57;;;;;;;8.70;100.00;101497.72;5015175;28;20487;-64
2021/10/22 11:05:42;;;;;;;27.23;6.15;;;;;;;8.79;100.00;101517.25;5023206;28;20034;-64
2021/10/22 11:08:18;;;;;;;31.95;6.10;;;;;;;8.91;100.00;101506.94;5025137;28;20040;-65
2021/10/22 11:11:15;;;;;;;27.55;6.22;;;;;;;9.09;99.84;101488.00;5025887;28;20030;-64
2021/10/22 11:13:52;;;;;;;25.95;5.82;;;;;;;8.93;98.94;101525.44;5023952;28;20036;-64
2021/10/22 11:16:20;;;;;;;28.75;6.68;;;;;;;8.77;100.00;101521.59;5021251;28;20116;-64
2021/10/22 11:18:48;;;;;;;28.73;6.72;;;;;;;8.78;100.00;101512.81;5018714;28;20041;-64
2021/10/22 11:21:14;;;;;;;28.55;6.60;;;;;;;9.00;100.00;101515.06;5022989;28;20491;-64
2021/10/22 11:23:40;;;;;;;32.40;7.43;;;;;;;8.92;100.00;101532.47;5018858;28;20021;-65
2021/10/22 11:26:05;;;;;;;32.03;6.88;;;;;;;8.85;100.00;101535.81;5018856;28;20026;-66
2021/10/22 11:28:31;;;;;;;28.70;6.22;;;;;;;8.67;100.00;101537.19;5020092;28;20033;-65